sensor_id;sensor_type;location;lat;lon;timestamp;P1;durP1;ratioP1;P2;durP2;ratioP2
75787;SDS011;64406;50.024;14.492;2023-09-30T00:00:43;5.97;;;3.83;;
75787;SDS011;64406;50.024;14.492;2023-09-30T00:03:29;5.80;;;3.80;;
75787;SDS011;64406;50.024;14.492;2023-09-30T00:05:55;5.63;;;3.33;;
75787;SDS011;64406;50.024;14.492;2023-09-30T00:08:20;7.97;;;3.90;;
75787;SDS011;64406;50.024;14.492;2023-09-30T00:10:47;5.30;;;3.78;;
75787;SDS011;64406;50.024;14.492;2023-09-30T00:13:13;6.97;;;4.00;;
75787;SDS011;64406;50.024;14.492;2023-09-30T00:15:38;8.52;;;3.53;;
75787;SDS011;64406;50.024;14.492;2023-09-30T00:18:04;6.55;;;3.40;;
75787;SDS011;64406;50.024;14.492;2023-09-30T00:20:30;6.75;;;4.13;;
75787;SDS011;64406;50.024;14.492;2023-09-30T00:22:56;5.63;;;3.67;;
75787;SDS011;64406;50.024;14.492;2023-09-30T00:25:21;5.45;;;4.18;;
75787;SDS011;64406;50.024;14.492;2023-09-30T00:27:47;7.25;;;3.92;;
75787;SDS011;64406;50.024;14.492;2023-09-30T00:30:13;6.15;;;4.30;;
75787;SDS011;64406;50.024;14.492;2023-09-30T00:32:39;8.70;;;4.97;;
75787;SDS011;64406;50.024;14.492;2023-09-30T00:35:05;11.85;;;4.50;;
75787;SDS011;64406;50.024;14.492;2023-09-30T00:37:39;7.05;;;4.45;;
75787;SDS011;64406;50.024;14.492;2023-09-30T00:40:05;7.78;;;4.63;;
75787;SDS011;64406;50.024;14.492;2023-09-30T00:42:32;10.02;;;4.95;;
75787;SDS011;64406;50.024;14.492;2023-09-30T00:44:58;17.20;;;6.85;;
75787;SDS011;64406;50.024;14.492;2023-09-30T00:47:23;16.23;;;7.22;;
75787;SDS011;64406;50.024;14.492;2023-09-30T00:49:51;13.18;;;5.90;;
75787;SDS011;64406;50.024;14.492;2023-09-30T00:52:19;14.05;;;7.63;;
75787;SDS011;64406;50.024;14.492;2023-09-30T00:54:44;15.05;;;7.63;;
75787;SDS011;64406;50.024;14.492;2023-09-30T00:57:12;14.45;;;7.05;;
75787;SDS011;64406;50.024;14.492;2023-09-30T00:59:38;18.80;;;8.02;;
75787;SDS011;64406;50.024;14.492;2023-09-30T01:02:06;16.05;;;6.78;;
75787;SDS011;64406;50.024;14.492;2023-09-30T01:04:32;18.50;;;8.15;;
75787;SDS011;64406;50.024;14.492;2023-09-30T01:06:58;19.77;;;8.65;;
75787;SDS011;64406;50.024;14.492;2023-09-30T01:09:24;20.27;;;9.30;;
75787;SDS011;64406;50.024;14.492;2023-09-30T01:11:50;22.77;;;8.82;;
75787;SDS011;64406;50.024;14.492;2023-09-30T01:14:29;18.00;;;8.20;;
75787;SDS011;64406;50.024;14.492;2023-09-30T01:17:04;26.05;;;10.32;;
75787;SDS011;64406;50.024;14.492;2023-09-30T01:19:29;25.05;;;10.55;;
75787;SDS011;64406;50.024;14.492;2023-09-30T01:21:58;28.98;;;11.00;;
75787;SDS011;64406;50.024;14.492;2023-09-30T01:24:31;25.88;;;10.77;;
75787;SDS011;64406;50.024;14.492;2023-09-30T01:27:03;27.77;;;11.10;;
75787;SDS011;64406;50.024;14.492;2023-09-30T01:29:28;24.20;;;10.30;;
75787;SDS011;64406;50.024;14.492;2023-09-30T01:31:54;26.85;;;11.18;;
75787;SDS011;64406;50.024;14.492;2023-09-30T01:34:20;27.42;;;10.73;;
75787;SDS011;64406;50.024;14.492;2023-09-30T01:36:46;25.77;;;11.48;;
75787;SDS011;64406;50.024;14.492;2023-09-30T01:39:12;29.30;;;11.18;;
75787;SDS011;64406;50.024;14.492;2023-09-30T01:41:39;28.13;;;11.52;;
75787;SDS011;64406;50.024;14.492;2023-09-30T01:44:05;30.92;;;11.15;;
75787;SDS011;64406;50.024;14.492;2023-09-30T01:46:31;32.40;;;10.82;;
75787;SDS011;64406;50.024;14.492;2023-09-30T01:48:56;32.78;;;10.98;;
75787;SDS011;64406;50.024;14.492;2023-09-30T01:51:22;26.05;;;10.63;;
75787;SDS011;64406;50.024;14.492;2023-09-30T01:53:48;27.77;;;11.43;;
75787;SDS011;64406;50.024;14.492;2023-09-30T01:56:14;28.83;;;11.48;;
75787;SDS011;64406;50.024;14.492;2023-09-30T01:58:40;26.38;;;10.75;;
75787;SDS011;64406;50.024;14.492;2023-09-30T02:01:06;26.38;;;10.40;;
75787;SDS011;64406;50.024;14.492;2023-09-30T02:03:31;24.98;;;10.38;;
75787;SDS011;64406;50.024;14.492;2023-09-30T02:05:57;27.70;;;10.35;;
75787;SDS011;64406;50.024;14.492;2023-09-30T02:08:23;25.65;;;10.27;;
75787;SDS011;64406;50.024;14.492;2023-09-30T02:10:49;28.73;;;10.75;;
75787;SDS011;64406;50.024;14.492;2023-09-30T02:13:16;30.50;;;11.25;;
75787;SDS011;64406;50.024;14.492;2023-09-30T02:15:43;25.40;;;10.82;;
75787;SDS011;64406;50.024;14.492;2023-09-30T02:18:08;27.35;;;10.65;;
75787;SDS011;64406;50.024;14.492;2023-09-30T02:20:35;21.45;;;9.43;;
75787;SDS011;64406;50.024;14.492;2023-09-30T02:23:05;26.92;;;10.25;;
75787;SDS011;64406;50.024;14.492;2023-09-30T02:25:31;24.63;;;10.30;;
75787;SDS011;64406;50.024;14.492;2023-09-30T02:27:58;25.58;;;10.18;;
75787;SDS011;64406;50.024;14.492;2023-09-30T02:30:24;24.20;;;10.23;;
75787;SDS011;64406;50.024;14.492;2023-09-30T02:32:50;26.63;;;11.32;;
75787;SDS011;64406;50.024;14.492;2023-09-30T02:35:16;25.30;;;10.35;;
75787;SDS011;64406;50.024;14.492;2023-09-30T02:37:42;29.60;;;10.93;;
75787;SDS011;64406;50.024;14.492;2023-09-30T02:40:07;27.60;;;10.23;;
75787;SDS011;64406;50.024;14.492;2023-09-30T02:42:36;30.52;;;10.75;;
75787;SDS011;64406;50.024;14.492;2023-09-30T02:45:03;26.55;;;10.07;;
75787;SDS011;64406;50.024;14.492;2023-09-30T02:47:30;27.17;;;10.35;;
75787;SDS011;64406;50.024;14.492;2023-09-30T02:49:57;25.90;;;10.48;;
75787;SDS011;64406;50.024;14.492;2023-09-30T02:52:26;24.52;;;10.15;;
75787;SDS011;64406;50.024;14.492;2023-09-30T02:54:54;27.17;;;10.65;;
75787;SDS011;64406;50.024;14.492;2023-09-30T02:57:20;27.42;;;10.80;;
75787;SDS011;64406;50.024;14.492;2023-09-30T02:59:47;27.33;;;10.95;;
75787;SDS011;64406;50.024;14.492;2023-09-30T03:02:12;25.58;;;10.15;;
75787;SDS011;64406;50.024;14.492;2023-09-30T03:04:38;29.05;;;10.43;;
75787;SDS011;64406;50.024;14.492;2023-09-30T03:07:05;30.05;;;10.35;;
75787;SDS011;64406;50.024;14.492;2023-09-30T03:09:30;27.45;;;10.30;;
75787;SDS011;64406;50.024;14.492;2023-09-30T03:11:56;25.88;;;9.82;;
75787;SDS011;64406;50.024;14.492;2023-09-30T03:14:24;25.02;;;9.65;;
75787;SDS011;64406;50.024;14.492;2023-09-30T03:16:50;26.58;;;10.65;;
75787;SDS011;64406;50.024;14.492;2023-09-30T03:19:16;26.13;;;9.27;;
75787;SDS011;64406;50.024;14.492;2023-09-30T03:21:42;23.10;;;10.40;;
75787;SDS011;64406;50.024;14.492;2023-09-30T03:24:08;25.15;;;9.70;;
75787;SDS011;64406;50.024;14.492;2023-09-30T03:26:34;24.30;;;9.43;;
75787;SDS011;64406;50.024;14.492;2023-09-30T03:29:01;24.98;;;9.07;;
75787;SDS011;64406;50.024;14.492;2023-09-30T03:31:26;27.70;;;10.20;;
75787;SDS011;64406;50.024;14.492;2023-09-30T03:33:52;23.10;;;9.50;;
75787;SDS011;64406;50.024;14.492;2023-09-30T03:36:21;29.90;;;10.75;;
75787;SDS011;64406;50.024;14.492;2023-09-30T03:38:51;25.23;;;9.75;;
75787;SDS011;64406;50.024;14.492;2023-09-30T03:41:21;29.63;;;10.82;;
75787;SDS011;64406;50.024;14.492;2023-09-30T03:43:46;24.35;;;9.48;;
75787;SDS011;64406;50.024;14.492;2023-09-30T03:46:14;29.00;;;9.98;;
75787;SDS011;64406;50.024;14.492;2023-09-30T03:48:41;25.52;;;9.25;;
75787;SDS011;64406;50.024;14.492;2023-09-30T03:53:43;25.10;;;10.13;;
75787;SDS011;64406;50.024;14.492;2023-09-30T03:56:09;22.85;;;9.57;;
75787;SDS011;64406;50.024;14.492;2023-09-30T03:58:42;25.42;;;8.90;;
75787;SDS011;64406;50.024;14.492;2023-09-30T04:01:08;32.25;;;9.02;;
75787;SDS011;64406;50.024;14.492;2023-09-30T04:03:38;27.17;;;10.10;;
75787;SDS011;64406;50.024;14.492;2023-09-30T04:06:04;26.75;;;10.13;;
75787;SDS011;64406;50.024;14.492;2023-09-30T04:08:30;25.70;;;9.23;;
75787;SDS011;64406;50.024;14.492;2023-09-30T04:11:01;25.98;;;9.57;;
75787;SDS011;64406;50.024;14.492;2023-09-30T04:13:28;25.23;;;8.57;;
75787;SDS011;64406;50.024;14.492;2023-09-30T04:15:54;27.90;;;9.80;;
75787;SDS011;64406;50.024;14.492;2023-09-30T04:18:21;22.48;;;9.00;;
75787;SDS011;64406;50.024;14.492;2023-09-30T04:20:48;23.95;;;9.35;;
75787;SDS011;64406;50.024;14.492;2023-09-30T04:23:14;25.83;;;9.27;;
75787;SDS011;64406;50.024;14.492;2023-09-30T04:25:40;22.98;;;9.57;;
75787;SDS011;64406;50.024;14.492;2023-09-30T04:28:06;25.92;;;9.90;;
75787;SDS011;64406;50.024;14.492;2023-09-30T04:30:33;25.80;;;9.45;;
75787;SDS011;64406;50.024;14.492;2023-09-30T04:32:59;24.23;;;9.23;;
75787;SDS011;64406;50.024;14.492;2023-09-30T04:35:26;22.35;;;8.38;;
75787;SDS011;64406;50.024;14.492;2023-09-30T04:37:52;24.73;;;9.18;;
75787;SDS011;64406;50.024;14.492;2023-09-30T04:40:18;19.58;;;9.10;;
75787;SDS011;64406;50.024;14.492;2023-09-30T04:42:47;22.05;;;8.82;;
75787;SDS011;64406;50.024;14.492;2023-09-30T04:45:13;21.55;;;8.73;;
75787;SDS011;64406;50.024;14.492;2023-09-30T04:47:45;26.27;;;9.05;;
75787;SDS011;64406;50.024;14.492;2023-09-30T04:50:11;21.88;;;8.50;;
75787;SDS011;64406;50.024;14.492;2023-09-30T04:52:38;25.35;;;9.45;;
75787;SDS011;64406;50.024;14.492;2023-09-30T04:55:06;20.00;;;7.93;;
75787;SDS011;64406;50.024;14.492;2023-09-30T04:57:32;20.58;;;8.95;;
75787;SDS011;64406;50.024;14.492;2023-09-30T04:59:58;19.30;;;7.60;;
75787;SDS011;64406;50.024;14.492;2023-09-30T05:02:24;20.48;;;8.57;;
75787;SDS011;64406;50.024;14.492;2023-09-30T05:04:50;17.40;;;7.90;;
75787;SDS011;64406;50.024;14.492;2023-09-30T05:07:16;20.80;;;7.55;;
75787;SDS011;64406;50.024;14.492;2023-09-30T05:09:41;19.88;;;7.57;;
75787;SDS011;64406;50.024;14.492;2023-09-30T05:12:08;19.55;;;7.13;;
75787;SDS011;64406;50.024;14.492;2023-09-30T05:14:35;13.23;;;5.18;;
75787;SDS011;64406;50.024;14.492;2023-09-30T05:17:02;13.07;;;4.65;;
75787;SDS011;64406;50.024;14.492;2023-09-30T05:19:30;8.30;;;3.30;;
75787;SDS011;64406;50.024;14.492;2023-09-30T05:21:57;9.45;;;3.40;;
75787;SDS011;64406;50.024;14.492;2023-09-30T05:24:23;5.18;;;2.28;;
75787;SDS011;64406;50.024;14.492;2023-09-30T05:26:49;4.72;;;2.05;;
75787;SDS011;64406;50.024;14.492;2023-09-30T05:29:14;3.22;;;1.65;;
75787;SDS011;64406;50.024;14.492;2023-09-30T05:31:40;1.50;;;1.10;;
75787;SDS011;64406;50.024;14.492;2023-09-30T05:34:05;2.05;;;0.90;;
75787;SDS011;64406;50.024;14.492;2023-09-30T05:36:31;0.82;;;0.57;;
75787;SDS011;64406;50.024;14.492;2023-09-30T05:38:56;1.77;;;0.80;;
75787;SDS011;64406;50.024;14.492;2023-09-30T05:41:23;1.67;;;0.90;;
75787;SDS011;64406;50.024;14.492;2023-09-30T05:43:48;1.38;;;1.10;;
75787;SDS011;64406;50.024;14.492;2023-09-30T05:46:14;3.03;;;1.00;;
75787;SDS011;64406;50.024;14.492;2023-09-30T05:48:40;1.95;;;1.05;;
75787;SDS011;64406;50.024;14.492;2023-09-30T05:51:07;1.88;;;1.23;;
75787;SDS011;64406;50.024;14.492;2023-09-30T05:53:32;1.80;;;1.17;;
75787;SDS011;64406;50.024;14.492;2023-09-30T05:55:59;2.50;;;1.20;;
75787;SDS011;64406;50.024;14.492;2023-09-30T05:58:25;3.78;;;1.40;;
75787;SDS011;64406;50.024;14.492;2023-09-30T06:00:52;2.60;;;1.30;;
75787;SDS011;64406;50.024;14.492;2023-09-30T06:03:18;5.10;;;1.70;;
75787;SDS011;64406;50.024;14.492;2023-09-30T06:05:45;4.20;;;1.35;;
75787;SDS011;64406;50.024;14.492;2023-09-30T06:08:11;3.50;;;1.65;;
75787;SDS011;64406;50.024;14.492;2023-09-30T06:10:41;4.88;;;1.90;;
75787;SDS011;64406;50.024;14.492;2023-09-30T06:13:11;2.67;;;1.60;;
75787;SDS011;64406;50.024;14.492;2023-09-30T06:15:41;3.15;;;1.55;;
75787;SDS011;64406;50.024;14.492;2023-09-30T06:18:08;5.03;;;1.83;;
75787;SDS011;64406;50.024;14.492;2023-09-30T06:20:35;2.33;;;1.60;;
75787;SDS011;64406;50.024;14.492;2023-09-30T06:23:01;5.03;;;1.85;;
75787;SDS011;64406;50.024;14.492;2023-09-30T06:25:27;3.58;;;2.22;;
75787;SDS011;64406;50.024;14.492;2023-09-30T06:27:53;4.28;;;1.88;;
75787;SDS011;64406;50.024;14.492;2023-09-30T06:30:23;4.28;;;1.75;;
75787;SDS011;64406;50.024;14.492;2023-09-30T06:32:55;3.45;;;1.75;;
75787;SDS011;64406;50.024;14.492;2023-09-30T06:35:22;5.40;;;1.60;;
75787;SDS011;64406;50.024;14.492;2023-09-30T06:37:48;3.70;;;1.40;;
75787;SDS011;64406;50.024;14.492;2023-09-30T06:40:14;3.88;;;1.80;;
75787;SDS011;64406;50.024;14.492;2023-09-30T06:42:39;5.13;;;2.13;;
75787;SDS011;64406;50.024;14.492;2023-09-30T06:45:06;6.68;;;1.73;;
75787;SDS011;64406;50.024;14.492;2023-09-30T06:47:33;4.38;;;1.90;;
75787;SDS011;64406;50.024;14.492;2023-09-30T06:50:00;4.65;;;1.50;;
75787;SDS011;64406;50.024;14.492;2023-09-30T06:52:32;7.57;;;2.00;;
75787;SDS011;64406;50.024;14.492;2023-09-30T06:55:03;6.03;;;1.73;;
75787;SDS011;64406;50.024;14.492;2023-09-30T06:57:31;4.15;;;1.85;;
75787;SDS011;64406;50.024;14.492;2023-09-30T06:59:57;8.02;;;1.52;;
75787;SDS011;64406;50.024;14.492;2023-09-30T07:02:23;4.95;;;1.70;;
75787;SDS011;64406;50.024;14.492;2023-09-30T07:04:49;2.40;;;1.20;;
75787;SDS011;64406;50.024;14.492;2023-09-30T07:07:15;6.28;;;2.03;;
75787;SDS011;64406;50.024;14.492;2023-09-30T07:09:42;5.55;;;2.10;;
75787;SDS011;64406;50.024;14.492;2023-09-30T07:12:09;4.10;;;1.65;;
75787;SDS011;64406;50.024;14.492;2023-09-30T07:14:34;5.28;;;2.45;;
75787;SDS011;64406;50.024;14.492;2023-09-30T07:17:00;5.38;;;2.10;;
75787;SDS011;64406;50.024;14.492;2023-09-30T07:19:26;5.55;;;2.15;;
75787;SDS011;64406;50.024;14.492;2023-09-30T07:21:51;4.50;;;1.90;;
75787;SDS011;64406;50.024;14.492;2023-09-30T07:24:17;5.78;;;2.10;;
75787;SDS011;64406;50.024;14.492;2023-09-30T07:26:42;5.25;;;2.10;;
75787;SDS011;64406;50.024;14.492;2023-09-30T07:29:09;6.55;;;2.35;;
75787;SDS011;64406;50.024;14.492;2023-09-30T07:31:35;6.50;;;2.05;;
75787;SDS011;64406;50.024;14.492;2023-09-30T07:34:01;5.78;;;1.98;;
75787;SDS011;64406;50.024;14.492;2023-09-30T07:36:27;5.43;;;2.20;;
75787;SDS011;64406;50.024;14.492;2023-09-30T07:38:53;5.43;;;1.92;;
75787;SDS011;64406;50.024;14.492;2023-09-30T07:41:19;3.25;;;2.08;;
75787;SDS011;64406;50.024;14.492;2023-09-30T07:43:45;6.10;;;1.70;;
75787;SDS011;64406;50.024;14.492;2023-09-30T07:46:11;5.75;;;2.10;;
75787;SDS011;64406;50.024;14.492;2023-09-30T07:48:36;6.60;;;1.63;;
75787;SDS011;64406;50.024;14.492;2023-09-30T07:51:04;4.60;;;1.77;;
75787;SDS011;64406;50.024;14.492;2023-09-30T07:53:32;4.45;;;1.85;;
75787;SDS011;64406;50.024;14.492;2023-09-30T07:55:57;6.88;;;1.67;;
75787;SDS011;64406;50.024;14.492;2023-09-30T07:58:23;5.60;;;1.50;;
75787;SDS011;64406;50.024;14.492;2023-09-30T08:00:48;4.85;;;1.70;;
75787;SDS011;64406;50.024;14.492;2023-09-30T08:03:14;5.00;;;1.70;;
75787;SDS011;64406;50.024;14.492;2023-09-30T08:05:40;4.72;;;1.60;;
75787;SDS011;64406;50.024;14.492;2023-09-30T08:08:06;4.55;;;1.50;;
75787;SDS011;64406;50.024;14.492;2023-09-30T08:10:31;5.07;;;1.90;;
75787;SDS011;64406;50.024;14.492;2023-09-30T08:12:58;5.57;;;1.67;;
75787;SDS011;64406;50.024;14.492;2023-09-30T08:15:27;6.40;;;1.83;;
75787;SDS011;64406;50.024;14.492;2023-09-30T08:17:52;5.55;;;1.92;;
75787;SDS011;64406;50.024;14.492;2023-09-30T08:20:18;4.68;;;1.65;;
75787;SDS011;64406;50.024;14.492;2023-09-30T08:22:44;7.18;;;1.65;;
75787;SDS011;64406;50.024;14.492;2023-09-30T08:25:10;5.60;;;1.90;;
75787;SDS011;64406;50.024;14.492;2023-09-30T08:27:36;6.15;;;1.63;;
75787;SDS011;64406;50.024;14.492;2023-09-30T08:30:03;7.30;;;2.58;;
75787;SDS011;64406;50.024;14.492;2023-09-30T08:32:32;4.85;;;1.48;;
75787;SDS011;64406;50.024;14.492;2023-09-30T08:34:59;4.28;;;2.08;;
75787;SDS011;64406;50.024;14.492;2023-09-30T08:37:24;5.07;;;1.92;;
75787;SDS011;64406;50.024;14.492;2023-09-30T08:39:50;5.55;;;1.77;;
75787;SDS011;64406;50.024;14.492;2023-09-30T08:42:15;8.57;;;2.25;;
75787;SDS011;64406;50.024;14.492;2023-09-30T08:44:44;4.68;;;2.17;;
75787;SDS011;64406;50.024;14.492;2023-09-30T08:47:10;4.20;;;1.85;;
75787;SDS011;64406;50.024;14.492;2023-09-30T08:49:39;6.25;;;1.67;;
75787;SDS011;64406;50.024;14.492;2023-09-30T08:52:06;4.38;;;1.83;;
75787;SDS011;64406;50.024;14.492;2023-09-30T08:54:35;6.28;;;2.03;;
75787;SDS011;64406;50.024;14.492;2023-09-30T08:57:01;5.00;;;1.65;;
75787;SDS011;64406;50.024;14.492;2023-09-30T08:59:30;6.80;;;1.88;;
75787;SDS011;64406;50.024;14.492;2023-09-30T09:01:57;6.70;;;2.10;;
75787;SDS011;64406;50.024;14.492;2023-09-30T09:04:23;7.18;;;1.90;;
75787;SDS011;64406;50.024;14.492;2023-09-30T09:06:51;7.75;;;2.15;;
75787;SDS011;64406;50.024;14.492;2023-09-30T09:09:18;11.82;;;2.60;;
75787;SDS011;64406;50.024;14.492;2023-09-30T09:11:47;7.22;;;2.00;;
75787;SDS011;64406;50.024;14.492;2023-09-30T09:14:13;10.82;;;2.30;;
75787;SDS011;64406;50.024;14.492;2023-09-30T09:16:55;8.88;;;2.17;;
75787;SDS011;64406;50.024;14.492;2023-09-30T09:19:20;6.68;;;1.90;;
75787;SDS011;64406;50.024;14.492;2023-09-30T09:21:56;6.43;;;1.67;;
75787;SDS011;64406;50.024;14.492;2023-09-30T09:24:27;4.78;;;1.73;;
75787;SDS011;64406;50.024;14.492;2023-09-30T09:27:10;4.60;;;1.70;;
75787;SDS011;64406;50.024;14.492;2023-09-30T09:29:37;7.55;;;2.08;;
75787;SDS011;64406;50.024;14.492;2023-09-30T09:32:10;6.32;;;1.98;;
75787;SDS011;64406;50.024;14.492;2023-09-30T09:34:40;9.15;;;2.25;;
75787;SDS011;64406;50.024;14.492;2023-09-30T09:37:15;10.07;;;2.88;;
75787;SDS011;64406;50.024;14.492;2023-09-30T09:39:57;8.57;;;2.25;;
75787;SDS011;64406;50.024;14.492;2023-09-30T09:42:30;11.57;;;2.83;;
75787;SDS011;64406;50.024;14.492;2023-09-30T09:44:57;6.03;;;2.23;;
75787;SDS011;64406;50.024;14.492;2023-09-30T09:47:24;6.10;;;2.35;;
75787;SDS011;64406;50.024;14.492;2023-09-30T09:49:51;9.68;;;2.35;;
75787;SDS011;64406;50.024;14.492;2023-09-30T09:52:18;7.90;;;1.92;;
75787;SDS011;64406;50.024;14.492;2023-09-30T09:54:45;9.85;;;2.42;;
75787;SDS011;64406;50.024;14.492;2023-09-30T09:57:12;7.30;;;2.45;;
75787;SDS011;64406;50.024;14.492;2023-09-30T09:59:41;6.25;;;2.30;;
75787;SDS011;64406;50.024;14.492;2023-09-30T10:02:10;12.95;;;3.53;;
75787;SDS011;64406;50.024;14.492;2023-09-30T10:04:43;9.35;;;2.70;;
75787;SDS011;64406;50.024;14.492;2023-09-30T10:07:33;7.53;;;2.40;;
75787;SDS011;64406;50.024;14.492;2023-09-30T10:10:01;10.07;;;2.05;;
75787;SDS011;64406;50.024;14.492;2023-09-30T10:12:40;8.65;;;2.58;;
75787;SDS011;64406;50.024;14.492;2023-09-30T10:17:59;5.60;;;1.77;;
75787;SDS011;64406;50.024;14.492;2023-09-30T10:20:32;11.23;;;2.88;;
75787;SDS011;64406;50.024;14.492;2023-09-30T10:23:18;6.25;;;2.35;;
75787;SDS011;64406;50.024;14.492;2023-09-30T10:25:51;6.00;;;2.10;;
75787;SDS011;64406;50.024;14.492;2023-09-30T10:28:39;8.13;;;2.05;;
75787;SDS011;64406;50.024;14.492;2023-09-30T10:39:10;9.88;;;2.55;;
75787;SDS011;64406;50.024;14.492;2023-09-30T10:46:52;6.07;;;2.33;;
75787;SDS011;64406;50.024;14.492;2023-09-30T10:51:50;6.78;;;2.28;;
75787;SDS011;64406;50.024;14.492;2023-09-30T10:54:21;7.70;;;2.17;;
75787;SDS011;64406;50.024;14.492;2023-09-30T10:56:52;7.20;;;2.38;;
75787;SDS011;64406;50.024;14.492;2023-09-30T10:59:19;7.18;;;2.15;;
75787;SDS011;64406;50.024;14.492;2023-09-30T11:01:45;6.72;;;2.33;;
75787;SDS011;64406;50.024;14.492;2023-09-30T11:04:11;6.47;;;2.88;;
75787;SDS011;64406;50.024;14.492;2023-09-30T11:06:39;6.82;;;2.08;;
75787;SDS011;64406;50.024;14.492;2023-09-30T11:09:06;8.07;;;2.35;;
75787;SDS011;64406;50.024;14.492;2023-09-30T11:11:38;8.02;;;2.45;;
75787;SDS011;64406;50.024;14.492;2023-09-30T11:14:24;6.07;;;2.13;;
75787;SDS011;64406;50.024;14.492;2023-09-30T11:17:00;7.85;;;2.30;;
75787;SDS011;64406;50.024;14.492;2023-09-30T11:19:35;7.53;;;2.40;;
75787;SDS011;64406;50.024;14.492;2023-09-30T11:22:02;5.22;;;2.03;;
75787;SDS011;64406;50.024;14.492;2023-09-30T11:24:28;9.45;;;2.20;;
75787;SDS011;64406;50.024;14.492;2023-09-30T11:26:55;5.43;;;1.98;;
75787;SDS011;64406;50.024;14.492;2023-09-30T11:29:21;7.82;;;2.17;;
75787;SDS011;64406;50.024;14.492;2023-09-30T11:31:47;8.27;;;2.03;;
75787;SDS011;64406;50.024;14.492;2023-09-30T11:34:15;8.68;;;2.00;;
75787;SDS011;64406;50.024;14.492;2023-09-30T11:36:51;5.03;;;1.60;;
75787;SDS011;64406;50.024;14.492;2023-09-30T11:39:24;7.20;;;1.83;;
75787;SDS011;64406;50.024;14.492;2023-09-30T11:41:50;5.30;;;1.98;;
75787;SDS011;64406;50.024;14.492;2023-09-30T11:44:17;6.82;;;1.98;;
75787;SDS011;64406;50.024;14.492;2023-09-30T11:47:00;7.25;;;2.55;;
75787;SDS011;64406;50.024;14.492;2023-09-30T11:49:30;8.60;;;2.05;;
75787;SDS011;64406;50.024;14.492;2023-09-30T11:52:07;3.67;;;1.58;;
75787;SDS011;64406;50.024;14.492;2023-09-30T11:54:38;5.05;;;1.60;;
75787;SDS011;64406;50.024;14.492;2023-09-30T11:57:17;7.75;;;1.73;;
75787;SDS011;64406;50.024;14.492;2023-09-30T11:59:44;8.13;;;2.03;;
75787;SDS011;64406;50.024;14.492;2023-09-30T12:02:11;6.97;;;2.28;;
75787;SDS011;64406;50.024;14.492;2023-09-30T12:04:41;8.05;;;2.10;;
75787;SDS011;64406;50.024;14.492;2023-09-30T12:07:08;8.70;;;2.00;;
75787;SDS011;64406;50.024;14.492;2023-09-30T12:09:34;4.13;;;1.65;;
75787;SDS011;64406;50.024;14.492;2023-09-30T12:12:02;3.47;;;1.73;;
75787;SDS011;64406;50.024;14.492;2023-09-30T12:14:29;4.10;;;2.08;;
75787;SDS011;64406;50.024;14.492;2023-09-30T12:16:56;6.78;;;1.75;;
75787;SDS011;64406;50.024;14.492;2023-09-30T12:19:22;7.47;;;1.80;;
75787;SDS011;64406;50.024;14.492;2023-09-30T12:21:48;4.70;;;1.65;;
75787;SDS011;64406;50.024;14.492;2023-09-30T12:24:14;4.88;;;2.00;;
75787;SDS011;64406;50.024;14.492;2023-09-30T12:26:48;2.75;;;1.50;;
75787;SDS011;64406;50.024;14.492;2023-09-30T12:29:18;6.50;;;2.45;;
75787;SDS011;64406;50.024;14.492;2023-09-30T12:31:47;5.35;;;1.63;;
75787;SDS011;64406;50.024;14.492;2023-09-30T12:34:14;4.20;;;1.60;;
75787;SDS011;64406;50.024;14.492;2023-09-30T12:36:40;9.27;;;2.17;;
75787;SDS011;64406;50.024;14.492;2023-09-30T12:39:07;7.40;;;2.00;;
75787;SDS011;64406;50.024;14.492;2023-09-30T12:41:40;6.18;;;1.70;;
75787;SDS011;64406;50.024;14.492;2023-09-30T12:44:06;5.72;;;1.77;;
75787;SDS011;64406;50.024;14.492;2023-09-30T12:46:33;7.55;;;1.77;;
75787;SDS011;64406;50.024;14.492;2023-09-30T12:49:03;6.53;;;2.45;;
75787;SDS011;64406;50.024;14.492;2023-09-30T12:51:29;5.03;;;2.05;;
75787;SDS011;64406;50.024;14.492;2023-09-30T12:53:56;6.53;;;1.90;;
75787;SDS011;64406;50.024;14.492;2023-09-30T12:56:23;6.57;;;2.05;;
75787;SDS011;64406;50.024;14.492;2023-09-30T12:58:49;5.88;;;1.88;;
75787;SDS011;64406;50.024;14.492;2023-09-30T13:01:14;5.72;;;2.03;;
75787;SDS011;64406;50.024;14.492;2023-09-30T13:03:41;7.82;;;2.72;;
75787;SDS011;64406;50.024;14.492;2023-09-30T13:06:06;5.65;;;2.25;;
75787;SDS011;64406;50.024;14.492;2023-09-30T13:08:32;9.50;;;2.40;;
75787;SDS011;64406;50.024;14.492;2023-09-30T13:11:00;9.65;;;2.38;;
75787;SDS011;64406;50.024;14.492;2023-09-30T13:13:28;5.35;;;2.55;;
75787;SDS011;64406;50.024;14.492;2023-09-30T13:15:56;5.97;;;1.85;;
75787;SDS011;64406;50.024;14.492;2023-09-30T13:18:23;6.25;;;2.63;;
75787;SDS011;64406;50.024;14.492;2023-09-30T13:20:48;6.63;;;2.38;;
75787;SDS011;64406;50.024;14.492;2023-09-30T13:23:14;5.05;;;2.20;;
75787;SDS011;64406;50.024;14.492;2023-09-30T13:25:40;4.93;;;2.00;;
75787;SDS011;64406;50.024;14.492;2023-09-30T13:28:08;8.57;;;2.92;;
75787;SDS011;64406;50.024;14.492;2023-09-30T13:30:33;5.45;;;2.08;;
75787;SDS011;64406;50.024;14.492;2023-09-30T13:32:59;6.13;;;2.50;;
75787;SDS011;64406;50.024;14.492;2023-09-30T13:35:24;6.05;;;2.03;;
75787;SDS011;64406;50.024;14.492;2023-09-30T13:37:50;4.70;;;1.95;;
75787;SDS011;64406;50.024;14.492;2023-09-30T13:40:16;3.97;;;2.05;;
75787;SDS011;64406;50.024;14.492;2023-09-30T13:42:42;4.70;;;2.28;;
75787;SDS011;64406;50.024;14.492;2023-09-30T13:45:08;5.28;;;1.92;;
75787;SDS011;64406;50.024;14.492;2023-09-30T13:47:34;5.90;;;2.20;;
75787;SDS011;64406;50.024;14.492;2023-09-30T13:50:01;5.85;;;2.40;;
75787;SDS011;64406;50.024;14.492;2023-09-30T13:52:29;6.38;;;2.15;;
75787;SDS011;64406;50.024;14.492;2023-09-30T13:54:54;5.97;;;2.38;;
75787;SDS011;64406;50.024;14.492;2023-09-30T13:57:21;5.18;;;2.05;;
75787;SDS011;64406;50.024;14.492;2023-09-30T13:59:46;7.13;;;2.50;;
75787;SDS011;64406;50.024;14.492;2023-09-30T14:02:12;5.85;;;2.25;;
75787;SDS011;64406;50.024;14.492;2023-09-30T14:04:38;4.43;;;2.10;;
75787;SDS011;64406;50.024;14.492;2023-09-30T14:07:03;7.68;;;2.22;;
75787;SDS011;64406;50.024;14.492;2023-09-30T14:09:30;5.05;;;2.38;;
75787;SDS011;64406;50.024;14.492;2023-09-30T14:11:56;7.65;;;2.50;;
75787;SDS011;64406;50.024;14.492;2023-09-30T14:14:24;5.68;;;2.63;;
75787;SDS011;64406;50.024;14.492;2023-09-30T14:16:50;4.57;;;1.92;;
75787;SDS011;64406;50.024;14.492;2023-09-30T14:19:17;5.22;;;2.15;;
75787;SDS011;64406;50.024;14.492;2023-09-30T14:21:43;3.40;;;2.00;;
75787;SDS011;64406;50.024;14.492;2023-09-30T14:24:09;5.10;;;2.55;;
75787;SDS011;64406;50.024;14.492;2023-09-30T14:26:37;6.63;;;2.15;;
75787;SDS011;64406;50.024;14.492;2023-09-30T14:29:03;5.15;;;2.25;;
75787;SDS011;64406;50.024;14.492;2023-09-30T14:31:29;4.70;;;2.22;;
75787;SDS011;64406;50.024;14.492;2023-09-30T14:33:54;6.50;;;2.47;;
75787;SDS011;64406;50.024;14.492;2023-09-30T14:36:20;5.40;;;2.17;;
75787;SDS011;64406;50.024;14.492;2023-09-30T14:38:45;7.25;;;2.28;;
75787;SDS011;64406;50.024;14.492;2023-09-30T14:41:11;4.22;;;2.00;;
75787;SDS011;64406;50.024;14.492;2023-09-30T14:43:40;8.43;;;2.47;;
75787;SDS011;64406;50.024;14.492;2023-09-30T14:46:06;4.75;;;2.40;;
75787;SDS011;64406;50.024;14.492;2023-09-30T14:48:33;7.05;;;2.55;;
75787;SDS011;64406;50.024;14.492;2023-09-30T14:50:59;5.47;;;2.15;;